createdAt,value
2019-06-20T00:01:36.423Z,83.80
2019-06-20T00:04:04.723Z,84.00
2019-06-20T00:06:31.435Z,84.40
2019-06-20T00:08:59.778Z,84.90
2019-06-20T00:11:27.646Z,86.00
2019-06-20T00:13:54.385Z,85.30
2019-06-20T00:16:25.747Z,85.10
2019-06-20T00:18:53.812Z,85.10
2019-06-20T00:21:21.517Z,84.90
2019-06-20T00:23:50.799Z,84.90
2019-06-20T00:26:17.382Z,85.00
2019-06-20T00:28:45.859Z,85.20
2019-06-20T00:31:12.708Z,85.50
2019-06-20T00:33:41.014Z,85.70
2019-06-20T00:36:07.745Z,85.60
2019-06-20T00:38:35.834Z,85.60
2019-06-20T00:41:03.749Z,85.50
2019-06-20T00:43:30.369Z,85.60
2019-06-20T00:46:00.894Z,86.10
2019-06-20T00:48:28.635Z,86.30
2019-06-20T00:50:56.810Z,86.40
2019-06-20T00:53:23.388Z,86.00
2019-06-20T00:55:52.074Z,86.50
2019-06-20T00:58:19.783Z,85.20
2019-06-20T01:00:46.357Z,85.70
2019-06-20T01:03:14.759Z,85.80
2019-06-20T01:05:41.596Z,86.00
2019-06-20T01:08:09.809Z,86.20
2019-06-20T01:10:36.421Z,86.20
2019-06-20T01:13:04.742Z,86.30
2019-06-20T01:15:32.785Z,86.50
2019-06-20T01:18:00.758Z,86.50
2019-06-20T01:20:28.473Z,86.50
2019-06-20T01:22:56.779Z,86.80
2019-06-20T01:25:42.896Z,87.00
2019-06-20T01:28:12.806Z,87.00
2019-06-20T01:30:40.721Z,87.20
2019-06-20T01:33:07.783Z,87.30
2019-06-20T01:35:36.800Z,87.50
2019-06-20T01:38:06.815Z,87.40
2019-06-20T01:40:33.515Z,87.30
2019-06-20T01:43:01.828Z,87.40
2019-06-20T01:45:29.816Z,87.70
2019-06-20T01:47:57.713Z,88.00
2019-06-20T01:50:25.851Z,88.40
2019-06-20T01:52:53.837Z,88.80
2019-06-20T01:55:21.768Z,88.90
2019-06-20T01:57:48.566Z,89.10
2019-06-20T02:00:33.783Z,89.00
2019-06-20T02:03:00.378Z,89.20
2019-06-20T02:05:28.795Z,89.40
2019-06-20T02:07:55.595Z,89.80
2019-06-20T02:10:23.827Z,90.30
2019-06-20T02:12:50.414Z,90.00
2019-06-20T02:15:17.451Z,89.10
2019-06-20T02:17:44.057Z,89.90
2019-06-20T02:20:33.780Z,89.00
2019-06-20T02:23:01.824Z,89.80
2019-06-20T02:25:28.922Z,89.50
2019-06-20T02:27:58.811Z,89.60
2019-06-20T02:30:27.860Z,89.70
2019-06-20T02:32:55.803Z,89.70
2019-06-20T02:35:24.474Z,89.60
2019-06-20T02:37:52.771Z,89.50
2019-06-20T02:40:19.734Z,89.70
2019-06-20T02:42:47.801Z,90.10
2019-06-20T02:45:15.141Z,90.20
2019-06-20T02:47:43.843Z,90.40
2019-06-20T02:50:11.208Z,90.60
2019-06-20T02:52:39.770Z,90.50
2019-06-20T02:55:08.865Z,90.70
2019-06-20T02:57:35.446Z,91.00
2019-06-20T03:00:08.756Z,90.60
2019-06-20T03:02:35.470Z,90.50
2019-06-20T03:05:05.821Z,90.70
2019-06-20T03:07:33.829Z,90.70
2019-06-20T03:10:01.831Z,90.90
2019-06-20T03:12:28.504Z,91.00
2019-06-20T03:14:56.797Z,91.40
2019-06-20T03:17:23.957Z,91.70
2019-06-20T03:19:53.362Z,92.00
2019-06-20T03:22:20.032Z,92.00
2019-06-20T03:24:47.908Z,92.20
2019-06-20T03:27:15.851Z,91.40
2019-06-20T03:29:43.966Z,91.00
2019-06-20T03:32:11.827Z,90.70
2019-06-20T03:34:39.791Z,90.60
2019-06-20T03:37:07.830Z,90.30
2019-06-20T03:39:34.389Z,90.80
2019-06-20T03:42:02.858Z,90.80
2019-06-20T03:44:30.814Z,90.80
2019-06-20T03:46:58.622Z,90.90
2019-06-20T03:49:26.903Z,91.00
2019-06-20T03:51:54.934Z,91.20
2019-06-20T03:54:21.504Z,90.90
2019-06-20T03:56:48.201Z,90.50
2019-06-20T03:59:17.772Z,90.60
2019-06-20T04:01:44.513Z,90.10
2019-06-20T04:04:12.812Z,90.00
2019-06-20T04:06:40.900Z,89.80
2019-06-20T04:09:08.865Z,89.10
2019-06-20T04:11:35.539Z,88.80
2019-06-20T04:14:03.884Z,88.60
2019-06-20T04:16:32.486Z,88.00
2019-06-20T04:19:00.790Z,88.10
2019-06-20T04:21:29.865Z,88.30
2019-06-20T04:23:57.847Z,88.50
2019-06-20T04:26:24.380Z,88.40
2019-06-20T04:28:54.876Z,88.20
2019-06-20T04:31:21.615Z,88.20
2019-06-20T04:33:49.897Z,87.90
2019-06-20T04:36:17.848Z,87.90
2019-06-20T04:38:44.544Z,88.10
2019-06-20T04:41:11.257Z,87.90
2019-06-20T04:43:37.827Z,87.90
2019-06-20T04:46:14.884Z,87.70
2019-06-20T04:48:42.899Z,87.20
2019-06-20T04:51:10.552Z,86.70
2019-06-20T04:53:38.878Z,86.50
2019-06-20T04:56:05.970Z,85.90
2019-06-20T04:58:33.884Z,85.60
2019-06-20T05:01:02.171Z,84.80
2019-06-20T05:03:30.883Z,84.00
2019-06-20T05:05:59.092Z,83.40
2019-06-20T05:08:26.843Z,83.10
2019-06-20T05:10:53.477Z,82.80
2019-06-20T05:13:21.883Z,81.80
2019-06-20T05:15:52.898Z,82.40
2019-06-20T05:18:19.880Z,81.70
2019-06-20T05:20:46.458Z,81.00
2019-06-20T05:23:14.926Z,80.60
2019-06-20T05:25:41.572Z,80.70
2019-06-20T05:28:09.911Z,79.50
2019-06-20T05:30:39.916Z,77.60
2019-06-20T05:33:06.500Z,77.00
2019-06-20T05:35:34.938Z,77.80
2019-06-20T05:38:02.890Z,78.20
2019-06-20T05:40:30.987Z,77.50
2019-06-20T05:42:57.544Z,77.70
2019-06-20T05:45:26.032Z,77.60
2019-06-20T05:47:52.611Z,76.30
2019-06-20T05:50:20.870Z,75.60
2019-06-20T05:52:47.565Z,75.50
2019-06-20T05:55:16.947Z,74.00
2019-06-20T05:57:44.932Z,74.00
2019-06-20T06:00:12.718Z,73.30
2019-06-20T06:02:42.914Z,71.70
2019-06-20T06:05:12.545Z,71.00
2019-06-20T06:07:40.987Z,70.40
2019-06-20T06:10:09.872Z,69.00
2019-06-20T06:12:37.888Z,67.90
2019-06-20T06:15:08.811Z,68.00
2019-06-20T06:17:35.790Z,66.40
2019-06-20T06:20:07.871Z,66.70
2019-06-20T06:22:34.986Z,66.10
2019-06-20T06:25:06.886Z,65.50
2019-06-20T06:27:33.768Z,65.10
2019-06-20T06:30:07.921Z,62.90
2019-06-20T06:32:39.919Z,61.50
2019-06-20T06:35:07.626Z,61.10
2019-06-20T06:37:35.979Z,60.80
2019-06-20T06:40:09.832Z,60.10
2019-06-20T06:42:37.865Z,60.00
2019-06-20T06:45:07.359Z,59.10
2019-06-20T06:47:35.875Z,57.70
2019-06-20T06:50:04.907Z,57.30
2019-06-20T06:52:31.531Z,55.20
2019-06-20T06:54:59.953Z,54.70
2019-06-20T06:57:26.532Z,53.40
2019-06-20T06:59:55.008Z,51.30
2019-06-20T07:02:25.028Z,52.40
2019-06-20T07:04:52.960Z,51.90
2019-06-20T07:07:21.095Z,52.50
2019-06-20T07:09:48.894Z,52.30
2019-06-20T07:12:15.781Z,52.00
2019-06-20T07:14:43.894Z,51.20
2019-06-20T07:17:19.630Z,50.70
2019-06-20T07:19:47.962Z,50.70
2019-06-20T07:22:15.875Z,49.90
2019-06-20T07:24:44.244Z,49.40
2019-06-20T07:27:10.762Z,47.60
2019-06-20T07:29:39.001Z,47.60
2019-06-20T07:32:07.335Z,47.10
2019-06-20T07:34:34.031Z,46.20
2019-06-20T07:37:02.001Z,46.50
2019-06-20T07:39:28.756Z,46.70
2019-06-20T07:41:56.907Z,45.20
2019-06-20T07:44:23.595Z,45.40
2019-06-20T07:46:51.960Z,44.20
2019-06-20T07:49:18.514Z,44.00
2019-06-20T07:51:47.056Z,43.40
2019-06-20T07:54:13.617Z,45.20
2019-06-20T07:56:41.951Z,45.30
2019-06-20T07:59:09.692Z,44.00
2019-06-20T08:01:38.031Z,43.60
2019-06-20T08:04:06.245Z,42.90
2019-06-20T08:06:34.980Z,42.60
2019-06-20T08:09:02.871Z,41.50
2019-06-20T08:11:32.950Z,42.20
2019-06-20T08:13:59.592Z,42.50
2019-06-20T08:16:29.022Z,42.20
2019-06-20T08:18:57.056Z,41.80
2019-06-20T08:21:24.966Z,41.70
2019-06-20T08:23:51.608Z,41.40
2019-06-20T08:26:20.992Z,41.50
2019-06-20T08:28:47.656Z,42.40
2019-06-20T08:31:16.005Z,41.60
2019-06-20T08:33:44.403Z,39.90
2019-06-20T08:36:14.002Z,37.30
2019-06-20T08:38:40.681Z,38.90
2019-06-20T08:41:07.510Z,38.30
2019-06-20T08:43:38.007Z,37.70
2019-06-20T08:46:10.068Z,39.00
2019-06-20T08:48:36.102Z,40.90
2019-06-20T08:51:04.437Z,39.50
2019-06-20T08:53:33.958Z,40.10
2019-06-20T08:56:00.933Z,39.70
2019-06-20T08:58:29.106Z,39.10
2019-06-20T09:00:58.021Z,38.90
2019-06-20T09:03:26.193Z,41.90
2019-06-20T09:05:57.095Z,39.30
2019-06-20T09:08:24.546Z,39.10
2019-06-20T09:10:54.351Z,38.50
2019-06-20T09:13:21.320Z,41.00
2019-06-20T09:15:50.081Z,38.60
2019-06-20T09:18:18.688Z,39.30
2019-06-20T09:20:46.997Z,40.30
2019-06-20T09:23:13.637Z,39.40
2019-06-20T09:25:41.954Z,40.60
2019-06-20T09:28:09.149Z,39.70
2019-06-20T09:30:39.050Z,38.80
2019-06-20T09:33:08.027Z,39.70
2019-06-20T09:35:36.344Z,39.90
2019-06-20T09:38:05.044Z,40.40
2019-06-20T09:40:31.968Z,40.10
2019-06-20T09:42:59.993Z,40.20
2019-06-20T09:45:28.932Z,39.30
2019-06-20T09:47:56.039Z,37.20
2019-06-20T09:50:25.025Z,36.10
2019-06-20T09:52:54.975Z,37.40
2019-06-20T09:55:23.073Z,37.80
2019-06-20T09:57:52.008Z,38.50
2019-06-20T10:00:21.604Z,39.70
2019-06-20T10:02:51.769Z,38.50
2019-06-20T10:05:22.068Z,36.70
2019-06-20T10:07:52.317Z,37.60
2019-06-20T10:10:21.486Z,35.60
2019-06-20T10:12:50.058Z,37.70
2019-06-20T10:15:21.176Z,36.30
2019-06-20T10:17:50.979Z,34.70
2019-06-20T10:20:20.585Z,35.50
2019-06-20T10:22:49.098Z,34.40
2019-06-20T10:25:16.189Z,34.70
2019-06-20T10:27:47.880Z,33.00
2019-06-20T10:30:17.261Z,32.70
2019-06-20T10:32:46.782Z,32.70
2019-06-20T10:35:14.670Z,31.50
2019-06-20T10:37:45.581Z,32.00
2019-06-20T10:40:19.071Z,30.00
2019-06-20T10:42:50.276Z,30.50
2019-06-20T10:45:21.012Z,31.00
2019-06-20T10:47:48.991Z,30.30
2019-06-20T10:50:16.308Z,29.50
2019-06-20T10:52:43.698Z,28.90
2019-06-20T10:55:13.077Z,28.30
2019-06-20T10:57:41.836Z,28.80
2019-06-20T11:00:12.107Z,29.00
2019-06-20T11:02:38.764Z,27.90
2019-06-20T11:05:05.937Z,26.60
2019-06-20T11:07:36.117Z,26.50
2019-06-20T11:10:09.069Z,26.90
2019-06-20T11:12:45.555Z,28.10
2019-06-20T11:15:07.021Z,26.50
2019-06-20T11:17:35.017Z,26.00
2019-06-20T11:20:03.429Z,27.40
2019-06-20T11:22:30.125Z,27.10
2019-06-20T11:24:56.702Z,27.70
2019-06-20T11:27:26.100Z,28.00
2019-06-20T11:29:52.841Z,26.30
2019-06-20T11:32:21.133Z,27.70
2019-06-20T11:34:47.716Z,29.00
2019-06-20T11:37:18.102Z,27.80
2019-06-20T11:39:47.463Z,28.60
2019-06-20T11:42:16.084Z,27.00
2019-06-20T11:44:43.103Z,26.10
2019-06-20T11:47:12.094Z,27.40
2019-06-20T11:49:40.418Z,25.90
2019-06-20T11:52:09.188Z,25.90
2019-06-20T11:54:38.247Z,25.20
2019-06-20T11:57:04.936Z,29.20
2019-06-20T11:59:33.064Z,31.30
2019-06-20T12:01:59.701Z,31.50
2019-06-20T12:04:28.224Z,31.90
2019-06-20T12:06:58.062Z,31.80
2019-06-20T12:09:24.694Z,32.50
2019-06-20T12:11:53.144Z,33.30
2019-06-20T12:14:21.091Z,35.40
2019-06-20T12:16:49.998Z,36.00
2019-06-20T12:19:16.830Z,36.70
2019-06-20T12:21:44.560Z,37.40
2019-06-20T12:24:14.097Z,40.80
2019-06-20T12:26:42.460Z,41.90
2019-06-20T12:29:12.112Z,41.40
2019-06-20T12:31:41.091Z,39.00
2019-06-20T12:34:08.288Z,35.60
2019-06-20T12:36:39.013Z,33.70
2019-06-20T12:39:09.199Z,31.20
2019-06-20T12:41:36.172Z,31.20
2019-06-20T12:44:05.237Z,30.30
2019-06-20T12:46:31.790Z,30.70
2019-06-20T12:48:59.372Z,30.80
2019-06-20T12:51:25.904Z,29.20
2019-06-20T12:53:54.098Z,28.90
2019-06-20T12:56:22.213Z,28.70
2019-06-20T12:58:50.009Z,27.90
2019-06-20T13:01:16.569Z,27.30
2019-06-20T13:03:43.287Z,27.00
2019-06-20T13:06:13.160Z,26.30
2019-06-20T13:08:43.652Z,26.10
2019-06-20T13:11:10.842Z,25.40
2019-06-20T13:13:38.746Z,24.70
2019-06-20T13:16:06.223Z,25.50
2019-06-20T13:18:35.143Z,24.40
2019-06-20T13:21:03.236Z,24.30
2019-06-20T13:23:31.165Z,24.20
2019-06-20T13:25:59.185Z,23.70
2019-06-20T13:28:25.819Z,24.50
2019-06-20T13:30:55.108Z,24.20
2019-06-20T13:33:21.713Z,24.90
2019-06-20T13:35:51.162Z,25.20
2019-06-20T13:38:17.701Z,24.90
2019-06-20T13:40:45.378Z,23.70
2019-06-20T13:43:14.413Z,23.20
2019-06-20T13:45:42.372Z,23.60
2019-06-20T13:48:08.964Z,24.40
2019-06-20T13:50:37.188Z,24.40
2019-06-20T13:53:04.346Z,25.10
2019-06-20T13:55:34.113Z,24.20
2019-06-20T13:58:02.042Z,23.30
2019-06-20T14:00:29.783Z,23.60
2019-06-20T14:02:58.198Z,23.90
2019-06-20T14:05:24.960Z,23.80
2019-06-20T14:07:54.371Z,23.40
2019-06-20T14:10:25.271Z,24.00
2019-06-20T14:12:51.940Z,24.10
2019-06-20T14:15:21.189Z,25.00
2019-06-20T14:17:49.729Z,24.20
2019-06-20T14:20:19.180Z,23.80
2019-06-20T14:22:49.689Z,24.30
2019-06-20T14:25:17.917Z,24.60
2019-06-20T14:27:46.315Z,25.40
2019-06-20T14:30:15.263Z,25.60
2019-06-20T14:32:43.227Z,25.60
2019-06-20T14:35:12.224Z,25.90
2019-06-20T14:37:38.996Z,25.30
2019-06-20T14:40:08.139Z,24.60
2019-06-20T14:42:36.738Z,23.80
2019-06-20T14:45:07.225Z,23.70
2019-06-20T14:47:34.771Z,24.30
2019-06-20T14:50:03.225Z,24.80
2019-06-20T14:52:29.981Z,24.70
2019-06-20T14:54:58.147Z,24.60
2019-06-20T14:57:25.986Z,24.30
2019-06-20T14:59:53.042Z,24.60
2019-06-20T15:02:34.585Z,24.10
2019-06-20T15:04:52.588Z,24.50
2019-06-20T15:07:19.476Z,24.40
2019-06-20T15:09:49.662Z,25.00
2019-06-20T15:12:18.506Z,26.00
2019-06-20T15:14:47.901Z,25.70
2019-06-20T15:17:14.825Z,24.50
2019-06-20T15:19:43.221Z,24.30
2019-06-20T15:22:11.291Z,24.40
2019-06-20T15:24:39.181Z,24.30
2019-06-20T15:27:07.661Z,24.40
2019-06-20T15:29:34.234Z,24.20
2019-06-20T15:32:02.158Z,24.70
2019-06-20T15:34:28.772Z,24.60
2019-06-20T15:36:57.784Z,24.00
2019-06-20T15:39:24.624Z,22.00
2019-06-20T15:41:54.166Z,22.80
2019-06-20T15:44:22.590Z,22.80
2019-06-20T15:46:51.285Z,22.50
2019-06-20T15:49:19.310Z,23.00
2019-06-20T15:51:47.266Z,23.30
2019-06-20T15:54:13.841Z,23.60
2019-06-20T15:56:42.272Z,23.80
2019-06-20T15:59:09.162Z,24.40
2019-06-20T16:01:37.306Z,23.60
2019-06-20T16:04:03.875Z,24.20
2019-06-20T16:06:30.480Z,24.20
2019-06-20T16:08:58.215Z,24.60
2019-06-20T16:11:26.253Z,24.80
2019-06-20T16:13:52.869Z,24.40
2019-06-20T16:16:23.292Z,25.20
2019-06-20T16:18:50.106Z,25.90
2019-06-20T16:21:19.213Z,25.90
2019-06-20T16:23:47.217Z,26.10
2019-06-20T16:26:16.286Z,27.20
2019-06-20T16:28:44.247Z,25.80
2019-06-20T16:31:25.943Z,25.80
2019-06-20T16:33:41.187Z,25.60
2019-06-20T16:36:12.215Z,25.90
2019-06-20T16:38:37.934Z,25.70
2019-06-20T16:41:06.185Z,25.70
2019-06-20T16:43:34.363Z,26.00
2019-06-20T16:46:04.268Z,26.20
2019-06-20T16:48:33.383Z,26.40
2019-06-20T16:51:01.708Z,27.20
2019-06-20T16:53:30.285Z,27.50
2019-06-20T16:55:56.831Z,27.20
2019-06-20T16:58:23.492Z,26.70
2019-06-20T17:00:52.340Z,26.40
2019-06-20T17:03:19.045Z,26.50
2019-06-20T17:05:47.311Z,27.20
2019-06-20T17:08:17.550Z,28.70
2019-06-20T17:10:46.264Z,28.00
2019-06-20T17:13:14.583Z,28.40
2019-06-20T17:15:43.324Z,28.90
2019-06-20T17:18:09.980Z,29.00
2019-06-20T17:20:38.231Z,29.20
2019-06-20T17:23:07.219Z,29.30
2019-06-20T17:25:34.081Z,29.80
2019-06-20T17:28:04.305Z,30.00
2019-06-20T17:30:31.187Z,30.80
2019-06-20T17:32:59.301Z,31.20
2019-06-20T17:35:26.231Z,31.20
2019-06-20T17:37:54.320Z,31.30
2019-06-20T17:40:23.333Z,31.60
2019-06-20T17:42:53.337Z,32.40
2019-06-20T17:45:20.982Z,32.50
2019-06-20T17:47:49.287Z,32.60
2019-06-20T17:50:16.769Z,33.00
2019-06-20T17:52:45.322Z,33.20
2019-06-20T17:55:12.737Z,33.70
2019-06-20T17:57:41.314Z,34.40
2019-06-20T18:00:12.075Z,34.60
2019-06-20T18:02:38.969Z,35.30
2019-06-20T18:05:08.288Z,35.30
2019-06-20T18:07:35.121Z,35.00
2019-06-20T18:10:04.273Z,36.20
2019-06-20T18:12:32.596Z,36.40
2019-06-20T18:15:02.294Z,36.80
2019-06-20T18:17:31.349Z,36.90
2019-06-20T18:19:57.974Z,36.60
2019-06-20T18:22:26.285Z,35.70
2019-06-20T18:24:52.838Z,36.00
2019-06-20T18:27:22.327Z,35.80
2019-06-20T18:29:50.375Z,35.90
2019-06-20T18:32:18.376Z,35.90
2019-06-20T18:35:00.540Z,35.70
2019-06-20T18:37:30.441Z,36.30
2019-06-20T18:39:43.804Z,36.30
2019-06-20T18:42:13.316Z,36.40
2019-06-20T18:44:41.402Z,36.60
2019-06-20T18:47:11.387Z,37.00
2019-06-20T18:49:38.173Z,37.60
2019-06-20T18:52:04.890Z,39.00
2019-06-20T18:54:31.669Z,40.00
2019-06-20T18:57:00.412Z,40.90
2019-06-20T18:59:26.987Z,41.60
2019-06-20T19:01:53.931Z,42.10
2019-06-20T19:04:23.405Z,42.70
2019-06-20T19:06:49.955Z,43.80
2019-06-20T19:09:18.293Z,44.60
2019-06-20T19:11:46.346Z,44.70
2019-06-20T19:14:13.175Z,45.00
2019-06-20T19:16:41.512Z,45.00
2019-06-20T19:19:08.287Z,45.00
2019-06-20T19:21:36.445Z,44.70
2019-06-20T19:24:05.389Z,44.40
2019-06-20T19:26:33.356Z,44.20
2019-06-20T19:29:01.305Z,43.70
2019-06-20T19:31:27.874Z,43.80
2019-06-20T19:33:56.363Z,44.10
2019-06-20T19:36:22.914Z,44.90
2019-06-20T19:38:51.367Z,44.60
2019-06-20T19:41:18.166Z,45.10
2019-06-20T19:43:46.356Z,45.00
2019-06-20T19:46:16.005Z,45.40
2019-06-20T19:48:44.428Z,45.50
2019-06-20T19:51:13.370Z,45.60
2019-06-20T19:53:40.299Z,45.10
2019-06-20T19:56:08.478Z,45.50
2019-06-20T19:58:35.345Z,45.50
2019-06-20T20:01:03.462Z,45.30
2019-06-20T20:03:34.318Z,44.50
2019-06-20T20:06:01.065Z,44.60
2019-06-20T20:08:29.276Z,44.90
2019-06-20T20:10:57.350Z,45.20
2019-06-20T20:13:24.200Z,45.20
2019-06-20T20:15:52.447Z,44.40
2019-06-20T20:18:19.042Z,44.20
2019-06-20T20:20:49.395Z,44.30
2019-06-20T20:23:16.153Z,44.50
2019-06-20T20:25:44.310Z,44.30
2019-06-20T20:28:12.551Z,44.60
2019-06-20T20:30:39.699Z,44.50
2019-06-20T20:33:08.405Z,45.00
2019-06-20T20:35:36.097Z,45.60
2019-06-20T20:38:05.394Z,46.10
2019-06-20T20:40:34.304Z,47.00
2019-06-20T20:43:00.991Z,47.90
2019-06-20T20:45:29.327Z,48.50
2019-06-20T20:47:57.544Z,49.40
2019-06-20T20:50:26.369Z,50.10
2019-06-20T20:52:53.164Z,50.50
2019-06-20T20:55:22.399Z,51.60
2019-06-20T20:57:49.192Z,52.50
2019-06-20T21:00:25.384Z,54.10
2019-06-20T21:02:52.842Z,54.10
2019-06-20T21:05:21.352Z,55.50
2019-06-20T21:07:49.400Z,55.20
2019-06-20T21:10:17.500Z,55.90
2019-06-20T21:12:44.458Z,57.20
2019-06-20T21:15:11.880Z,56.60
2019-06-20T21:17:40.492Z,57.20
2019-06-20T21:20:10.368Z,58.80
2019-06-20T21:22:38.448Z,58.80
2019-06-20T21:25:06.984Z,60.00
2019-06-20T21:27:35.405Z,60.80
2019-06-20T21:30:03.866Z,62.50
2019-06-20T21:32:32.363Z,62.50
2019-06-20T21:34:58.915Z,63.70
2019-06-20T21:37:27.380Z,65.40
2019-06-20T21:39:54.042Z,67.00
2019-06-20T21:42:23.332Z,68.40
2019-06-20T21:44:51.495Z,70.10
2019-06-20T21:47:19.381Z,70.30
2019-06-20T21:49:49.501Z,70.60
2019-06-20T21:52:17.333Z,71.00
2019-06-20T21:54:45.415Z,71.50
2019-06-20T21:57:14.203Z,71.90
2019-06-20T21:59:42.402Z,72.00
2019-06-20T22:02:09.064Z,72.30
2019-06-20T22:04:37.504Z,72.80
2019-06-20T22:07:04.280Z,73.80
2019-06-20T22:09:32.352Z,73.60
2019-06-20T22:11:58.992Z,73.30
2019-06-20T22:14:27.343Z,73.60
2019-06-20T22:16:53.915Z,74.00
2019-06-20T22:19:24.399Z,74.50
2019-06-20T22:21:52.334Z,74.90
2019-06-20T22:24:20.428Z,74.80
2019-06-20T22:26:47.086Z,75.70
2019-06-20T22:29:15.327Z,76.10
2019-06-20T22:31:42.072Z,76.60
2019-06-20T22:34:10.367Z,77.00
2019-06-20T22:36:40.545Z,77.50
2019-06-20T22:39:09.478Z,78.70
2019-06-20T22:41:38.504Z,78.70
2019-06-20T22:44:08.407Z,78.80
2019-06-20T22:46:34.945Z,78.70
2019-06-20T22:49:04.428Z,79.00
2019-06-20T22:51:32.745Z,79.20
2019-06-20T22:54:01.400Z,79.40
2019-06-20T22:56:29.487Z,79.70
2019-06-20T22:58:57.433Z,80.00
2019-06-20T23:01:24.540Z,79.90
2019-06-20T23:03:52.390Z,79.90
2019-06-20T23:06:19.011Z,79.80
2019-06-20T23:08:47.439Z,80.00
2019-06-20T23:11:14.148Z,80.80
2019-06-20T23:13:40.758Z,80.90
2019-06-20T23:16:08.517Z,80.70
2019-06-20T23:18:38.440Z,80.30
2019-06-20T23:21:06.401Z,79.90
2019-06-20T23:23:36.512Z,79.30
2019-06-20T23:26:05.241Z,78.70
2019-06-20T23:28:33.457Z,78.40
2019-06-20T23:31:00.201Z,78.70
2019-06-20T23:33:28.374Z,79.10
2019-06-20T23:35:54.909Z,79.10
2019-06-20T23:38:24.337Z,79.30
2019-06-20T23:40:52.450Z,79.20
2019-06-20T23:43:20.421Z,79.60
2019-06-20T23:45:47.090Z,79.20
2019-06-20T23:48:17.495Z,79.60
2019-06-20T23:50:46.483Z,79.40
2019-06-20T23:53:15.132Z,79.60
2019-06-20T23:55:44.463Z,79.50
2019-06-20T23:58:11.031Z,79.40
